Terminal Aerodrome Forecast
Issued by NWS

Home | Current Version | Previous Version | Text Only | Print | Product List | Glossary On
Versions: 1 2 3 4 5 6 7 8 9 10 11 12 13
130
FTUS45 KRIW 162323
TAFCPR
TAF
KCPR 162323Z 1700/1724 23010G15KT P6SM SKC
     FM170400 22014G20KT P6SM SKC
     FM171400 22022G32KT P6SM SKC=

USA.gov is the U.S. government's official web portal to all federal, state and local government web resources and services.